sensor_id;sensor_type;location;lat;lon;timestamp;pressure;altitude;pressure_sealevel;temperature;humidity
63096;BME280;49184;55.596;37.770;2022-09-14T00:01:10;98680.81;;;11.63;80.91
63096;BME280;49184;55.596;37.770;2022-09-14T00:03:37;98681.75;;;11.67;80.93
63096;BME280;49184;55.596;37.770;2022-09-14T00:06:07;98690.31;;;11.66;80.63
63096;BME280;49184;55.596;37.770;2022-09-14T00:08:34;98693.16;;;11.69;80.70
63096;BME280;49184;55.596;37.770;2022-09-14T00:11:06;98680.94;;;11.67;80.74
63096;BME280;49184;55.596;37.770;2022-09-14T00:13:33;98671.81;;;11.63;80.88
63096;BME280;49184;55.596;37.770;2022-09-14T00:16:04;98694.09;;;11.73;80.91
63096;BME280;49184;55.596;37.770;2022-09-14T00:18:31;98667.13;;;11.63;80.80
63096;BME280;49184;55.596;37.770;2022-09-14T00:21:03;98689.03;;;11.84;80.69
63096;BME280;49184;55.596;37.770;2022-09-14T00:23:30;98683.28;;;11.77;80.77
63096;BME280;49184;55.596;37.770;2022-09-14T00:26:04;98673.34;;;11.72;80.83
63096;BME280;49184;55.596;37.770;2022-09-14T00:28:37;98672.06;;;11.70;80.69
63096;BME280;49184;55.596;37.770;2022-09-14T00:31:04;98666.84;;;11.77;80.78
63096;BME280;49184;55.596;37.770;2022-09-14T00:33:30;98674.38;;;11.80;80.62
63096;BME280;49184;55.596;37.770;2022-09-14T00:38:34;98668.91;;;11.80;80.43
63096;BME280;49184;55.596;37.770;2022-09-14T00:41:02;98662.38;;;11.72;80.43
63096;BME280;49184;55.596;37.770;2022-09-14T00:43:28;98673.38;;;11.85;80.54
63096;BME280;49184;55.596;37.770;2022-09-14T00:45:55;98675.13;;;11.89;80.74
63096;BME280;49184;55.596;37.770;2022-09-14T00:48:23;98653.22;;;11.68;80.86
63096;BME280;49184;55.596;37.770;2022-09-14T00:50:51;98648.88;;;11.67;80.83
63096;BME280;49184;55.596;37.770;2022-09-14T00:53:18;98678.44;;;11.95;80.64
63096;BME280;49184;55.596;37.770;2022-09-14T00:55:44;98656.97;;;11.85;80.31
63096;BME280;49184;55.596;37.770;2022-09-14T00:58:10;98655.22;;;11.80;80.55
63096;BME280;49184;55.596;37.770;2022-09-14T01:00:36;98633.25;;;11.68;80.69
63096;BME280;49184;55.596;37.770;2022-09-14T01:03:03;98636.91;;;11.72;80.63
63096;BME280;49184;55.596;37.770;2022-09-14T01:08:37;98664.63;;;11.91;80.93
63096;BME280;49184;55.596;37.770;2022-09-14T01:11:49;98655.84;;;11.86;81.10
63096;BME280;49184;55.596;37.770;2022-09-14T01:14:30;98654.03;;;11.90;81.01
63096;BME280;49184;55.596;37.770;2022-09-14T01:20:02;98657.13;;;12.01;80.65
63096;BME280;49184;55.596;37.770;2022-09-14T01:22:38;98643.19;;;11.93;80.70
63096;BME280;49184;55.596;37.770;2022-09-14T01:25:27;98645.56;;;11.95;80.61
63096;BME280;49184;55.596;37.770;2022-09-14T01:28:00;98653.47;;;11.96;80.18
63096;BME280;49184;55.596;37.770;2022-09-14T01:30:32;98621.69;;;11.83;80.85
63096;BME280;49184;55.596;37.770;2022-09-14T01:33:12;98655.19;;;12.01;80.75
63096;BME280;49184;55.596;37.770;2022-09-14T01:35:50;98641.91;;;11.91;80.99
63096;BME280;49184;55.596;37.770;2022-09-14T01:38:42;98631.09;;;11.94;80.91
63096;BME280;49184;55.596;37.770;2022-09-14T01:41:12;98629.03;;;11.91;80.80
63096;BME280;49184;55.596;37.770;2022-09-14T01:43:43;98624.91;;;11.85;80.94
63096;BME280;49184;55.596;37.770;2022-09-14T01:46:15;98637.16;;;12.00;81.24
63096;BME280;49184;55.596;37.770;2022-09-14T01:49:02;98636.81;;;12.02;81.19
63096;BME280;49184;55.596;37.770;2022-09-14T01:51:35;98631.09;;;11.94;81.33
63096;BME280;49184;55.596;37.770;2022-09-14T01:54:09;98621.03;;;11.98;81.48
63096;BME280;49184;55.596;37.770;2022-09-14T01:56:40;98627.22;;;11.95;81.32
63096;BME280;49184;55.596;37.770;2022-09-14T01:59:15;98615.34;;;11.91;81.49
63096;BME280;49184;55.596;37.770;2022-09-14T02:01:48;98613.75;;;11.90;81.66
63096;BME280;49184;55.596;37.770;2022-09-14T02:04:19;98632.16;;;12.02;81.72
63096;BME280;49184;55.596;37.770;2022-09-14T02:06:48;98595.09;;;11.84;81.83
63096;BME280;49184;55.596;37.770;2022-09-14T02:09:19;98599.13;;;11.86;81.89
63096;BME280;49184;55.596;37.770;2022-09-14T02:11:47;98613.78;;;12.03;81.83
63096;BME280;49184;55.596;37.770;2022-09-14T02:14:14;98603.69;;;11.94;81.83
63096;BME280;49184;55.596;37.770;2022-09-14T02:16:40;98611.84;;;12.03;81.79
63096;BME280;49184;55.596;37.770;2022-09-14T02:19:08;98584.28;;;11.87;81.76
63096;BME280;49184;55.596;37.770;2022-09-14T02:21:35;98611.59;;;12.08;81.78
63096;BME280;49184;55.596;37.770;2022-09-14T02:24:02;98590.13;;;11.98;81.71
63096;BME280;49184;55.596;37.770;2022-09-14T02:26:29;98599.03;;;12.07;81.74
63096;BME280;49184;55.596;37.770;2022-09-14T02:28:55;98594.13;;;12.01;81.84
63096;BME280;49184;55.596;37.770;2022-09-14T02:42:26;98589.69;;;11.96;81.97
63096;BME280;49184;55.596;37.770;2022-09-14T02:45:14;98589.44;;;12.01;82.08
63096;BME280;49184;55.596;37.770;2022-09-14T02:47:56;98593.09;;;12.05;81.90
63096;BME280;49184;55.596;37.770;2022-09-14T02:50:45;98592.31;;;12.05;82.10
63096;BME280;49184;55.596;37.770;2022-09-14T02:53:18;98575.31;;;11.99;82.10
63096;BME280;49184;55.596;37.770;2022-09-14T02:56:00;98598.84;;;12.12;82.18
63096;BME280;49184;55.596;37.770;2022-09-14T02:58:35;98570.50;;;11.96;82.02
63096;BME280;49184;55.596;37.770;2022-09-14T03:01:03;98577.81;;;12.04;82.00
63096;BME280;49184;55.596;37.770;2022-09-14T03:03:29;98572.34;;;12.04;81.98
63096;BME280;49184;55.596;37.770;2022-09-14T03:05:55;98576.81;;;12.09;81.88
63096;BME280;49184;55.596;37.770;2022-09-14T03:08:23;98565.25;;;12.03;81.80
63096;BME280;49184;55.596;37.770;2022-09-14T03:10:50;98557.25;;;11.98;82.06
63096;BME280;49184;55.596;37.770;2022-09-14T03:13:16;98550.19;;;11.97;81.99
63096;BME280;49184;55.596;37.770;2022-09-14T03:15:42;98562.63;;;12.07;81.78
63096;BME280;49184;55.596;37.770;2022-09-14T03:18:10;98562.63;;;12.07;81.66
63096;BME280;49184;55.596;37.770;2022-09-14T03:20:36;98566.41;;;12.14;81.80
63096;BME280;49184;55.596;37.770;2022-09-14T03:23:04;98586.97;;;12.20;81.70
63096;BME280;49184;55.596;37.770;2022-09-14T03:25:35;98565.97;;;12.12;81.75
63096;BME280;49184;55.596;37.770;2022-09-14T03:28:02;98547.91;;;12.11;81.71
63096;BME280;49184;55.596;37.770;2022-09-14T03:32:59;98556.47;;;12.10;81.84
63096;BME280;49184;55.596;37.770;2022-09-14T03:35:29;98571.09;;;12.26;81.66
63096;BME280;49184;55.596;37.770;2022-09-14T03:37:57;98565.63;;;12.26;81.62
63096;BME280;49184;55.596;37.770;2022-09-14T03:42:52;98562.09;;;12.26;81.60
63096;BME280;49184;55.596;37.770;2022-09-14T03:47:44;98563.91;;;12.34;81.58
63096;BME280;49184;55.596;37.770;2022-09-14T03:50:12;98548.72;;;12.24;81.46
63096;BME280;49184;55.596;37.770;2022-09-14T03:52:39;98568.59;;;12.45;81.18
63096;BME280;49184;55.596;37.770;2022-09-14T03:55:06;98548.03;;;12.27;81.45
63096;BME280;49184;55.596;37.770;2022-09-14T03:57:34;98541.06;;;12.30;81.57
63096;BME280;49184;55.596;37.770;2022-09-14T04:00:00;98554.53;;;12.35;81.03
63096;BME280;49184;55.596;37.770;2022-09-14T04:02:28;98526.00;;;12.23;81.31
63096;BME280;49184;55.596;37.770;2022-09-14T04:04:55;98555.69;;;12.46;80.99
63096;BME280;49184;55.596;37.770;2022-09-14T04:07:21;98548.94;;;12.43;80.75
63096;BME280;49184;55.596;37.770;2022-09-14T04:09:47;98543.00;;;12.41;80.84
63096;BME280;49184;55.596;37.770;2022-09-14T04:12:13;98561.28;;;12.62;81.08
63096;BME280;49184;55.596;37.770;2022-09-14T04:14:39;98565.59;;;12.63;80.93
63096;BME280;49184;55.596;37.770;2022-09-14T04:43:10;98569.31;;;12.95;80.34
63096;BME280;49184;55.596;37.770;2022-09-14T04:48:04;98568.84;;;13.05;80.08
63096;BME280;49184;55.596;37.770;2022-09-14T04:50:31;98564.47;;;13.04;79.55
63096;BME280;49184;55.596;37.770;2022-09-14T04:53:02;98564.47;;;13.04;79.58
63096;BME280;49184;55.596;37.770;2022-09-14T04:55:29;98566.88;;;13.06;79.80
63096;BME280;49184;55.596;37.770;2022-09-14T04:57:55;98548.59;;;12.98;79.41
63096;BME280;49184;55.596;37.770;2022-09-14T05:00:21;98553.41;;;13.01;79.42
63096;BME280;49184;55.596;37.770;2022-09-14T05:02:48;98550.44;;;12.93;79.50
63096;BME280;49184;55.596;37.770;2022-09-14T05:05:14;98552.50;;;12.97;79.54
63096;BME280;49184;55.596;37.770;2022-09-14T05:07:40;98581.50;;;13.10;79.62
63096;BME280;49184;55.596;37.770;2022-09-14T05:10:07;98567.56;;;13.03;79.37
63096;BME280;49184;55.596;37.770;2022-09-14T05:12:33;98570.78;;;13.05;79.74
63096;BME280;49184;55.596;37.770;2022-09-14T05:14:59;98544.97;;;12.93;79.18
63096;BME280;49184;55.596;37.770;2022-09-14T05:17:25;98570.09;;;13.08;79.71
63096;BME280;49184;55.596;37.770;2022-09-14T05:19:51;98567.34;;;13.08;79.69
63096;BME280;49184;55.596;37.770;2022-09-14T05:24:46;98569.63;;;13.06;79.15
63096;BME280;49184;55.596;37.770;2022-09-14T05:27:12;98576.47;;;13.12;79.40
63096;BME280;49184;55.596;37.770;2022-09-14T05:29:39;98571.66;;;13.21;79.52
63096;BME280;49184;55.596;37.770;2022-09-14T05:34:33;98576.56;;;13.28;79.50
63096;BME280;49184;55.596;37.770;2022-09-14T05:37:00;98575.97;;;13.22;78.68
63096;BME280;49184;55.596;37.770;2022-09-14T05:39:25;98570.38;;;13.19;78.63
63096;BME280;49184;55.596;37.770;2022-09-14T05:41:52;98570.13;;;13.24;79.26
63096;BME280;49184;55.596;37.770;2022-09-14T05:44:18;98553.81;;;13.15;78.77
63096;BME280;49184;55.596;37.770;2022-09-14T05:46:44;98576.19;;;13.29;78.62
63096;BME280;49184;55.596;37.770;2022-09-14T05:49:10;98557.00;;;13.17;78.86
63096;BME280;49184;55.596;37.770;2022-09-14T05:51:36;98572.31;;;13.30;78.44
63096;BME280;49184;55.596;37.770;2022-09-14T05:54:02;98573.09;;;13.31;78.34
63096;BME280;49184;55.596;37.770;2022-09-14T05:56:34;98574.03;;;13.35;78.43
63096;BME280;49184;55.596;37.770;2022-09-14T05:59:00;98576.41;;;13.36;78.25
63096;BME280;49184;55.596;37.770;2022-09-14T06:01:28;98571.28;;;13.35;78.05
63096;BME280;49184;55.596;37.770;2022-09-14T06:03:56;98571.81;;;13.40;78.33
63096;BME280;49184;55.596;37.770;2022-09-14T06:06:22;98561.53;;;13.37;78.23
63096;BME280;49184;55.596;37.770;2022-09-14T06:08:50;98558.53;;;13.43;77.96
63096;BME280;49184;55.596;37.770;2022-09-14T06:11:23;98569.72;;;13.50;78.14
63096;BME280;49184;55.596;37.770;2022-09-14T06:13:49;98572.81;;;13.48;78.29
63096;BME280;49184;55.596;37.770;2022-09-14T06:16:18;98570.97;;;13.52;78.14
63096;BME280;49184;55.596;37.770;2022-09-14T06:18:45;98540.72;;;13.36;77.71
63096;BME280;49184;55.596;37.770;2022-09-14T06:21:13;98557.13;;;13.49;77.63
63096;BME280;49184;55.596;37.770;2022-09-14T06:23:43;98561.66;;;13.57;78.13
63096;BME280;49184;55.596;37.770;2022-09-14T06:26:09;98557.31;;;13.56;78.00
63096;BME280;49184;55.596;37.770;2022-09-14T06:28:35;98548.28;;;13.55;77.34
63096;BME280;49184;55.596;37.770;2022-09-14T06:31:02;98520.63;;;13.32;77.19
63096;BME280;49184;55.596;37.770;2022-09-14T06:33:30;98532.44;;;13.49;78.01
63096;BME280;49184;55.596;37.770;2022-09-14T06:36:05;98560.81;;;13.69;77.66
63096;BME280;49184;55.596;37.770;2022-09-14T06:38:36;98551.69;;;13.65;76.73
63096;BME280;49184;55.596;37.770;2022-09-14T06:41:03;98547.00;;;13.65;77.09
63096;BME280;49184;55.596;37.770;2022-09-14T06:43:33;98556.09;;;13.69;77.02
63096;BME280;49184;55.596;37.770;2022-09-14T06:46:06;98555.31;;;13.69;77.21
63096;BME280;49184;55.596;37.770;2022-09-14T06:48:36;98536.94;;;13.57;77.15
63096;BME280;49184;55.596;37.770;2022-09-14T06:51:14;98556.91;;;13.70;76.85
63096;BME280;49184;55.596;37.770;2022-09-14T06:53:40;98560.53;;;13.74;76.84
63096;BME280;49184;55.596;37.770;2022-09-14T06:56:09;98556.09;;;13.69;77.19
63096;BME280;49184;55.596;37.770;2022-09-14T06:58:35;98550.06;;;13.63;77.18
63096;BME280;49184;55.596;37.770;2022-09-14T07:01:07;98551.22;;;13.62;77.49
63096;BME280;49184;55.596;37.770;2022-09-14T07:03:36;98547.50;;;13.55;77.41
63096;BME280;49184;55.596;37.770;2022-09-14T07:06:11;98553.19;;;13.62;77.63
63096;BME280;49184;55.596;37.770;2022-09-14T07:08:38;98555.56;;;13.63;78.02
63096;BME280;49184;55.596;37.770;2022-09-14T07:11:06;98544.94;;;13.62;78.31
63096;BME280;49184;55.596;37.770;2022-09-14T07:13:33;98540.06;;;13.55;78.25
63096;BME280;49184;55.596;37.770;2022-09-14T07:16:00;98537.22;;;13.52;78.61
63096;BME280;49184;55.596;37.770;2022-09-14T07:18:29;98552.81;;;13.63;78.27
63096;BME280;49184;55.596;37.770;2022-09-14T07:21:11;98534.09;;;13.53;78.60
63096;BME280;49184;55.596;37.770;2022-09-14T07:23:42;98539.00;;;13.60;78.89
63096;BME280;49184;55.596;37.770;2022-09-14T07:26:19;98543.00;;;13.62;79.00
63096;BME280;49184;55.596;37.770;2022-09-14T07:28:48;98529.81;;;13.68;79.15
63096;BME280;49184;55.596;37.770;2022-09-14T07:31:31;98535.31;;;13.68;78.82
63096;BME280;49184;55.596;37.770;2022-09-14T07:33:59;98525.53;;;13.71;79.04
63096;BME280;49184;55.596;37.770;2022-09-14T07:36:29;98539.09;;;13.79;79.25
63096;BME280;49184;55.596;37.770;2022-09-14T07:38:56;98524.22;;;13.80;79.10
63096;BME280;49184;55.596;37.770;2022-09-14T07:41:26;98537.59;;;13.82;79.24
63096;BME280;49184;55.596;37.770;2022-09-14T07:43:55;98534.78;;;13.94;79.63
63096;BME280;49184;55.596;37.770;2022-09-14T07:46:22;98530.44;;;13.93;79.44
63096;BME280;49184;55.596;37.770;2022-09-14T07:48:57;98531.06;;;14.02;79.47
63096;BME280;49184;55.596;37.770;2022-09-14T07:51:24;98538.69;;;14.09;79.49
63096;BME280;49184;55.596;37.770;2022-09-14T07:53:52;98532.94;;;14.14;79.70
63096;BME280;49184;55.596;37.770;2022-09-14T07:56:18;98524.22;;;14.28;79.35
63096;BME280;49184;55.596;37.770;2022-09-14T07:58:47;98522.59;;;14.43;79.17
63096;BME280;49184;55.596;37.770;2022-09-14T08:01:15;98530.31;;;14.53;78.85
63096;BME280;49184;55.596;37.770;2022-09-14T08:03:45;98514.50;;;14.50;78.14
63096;BME280;49184;55.596;37.770;2022-09-14T08:06:22;98515.41;;;14.54;77.93
63096;BME280;49184;55.596;37.770;2022-09-14T08:08:50;98525.34;;;14.59;77.50
63096;BME280;49184;55.596;37.770;2022-09-14T08:11:19;98522.03;;;14.69;77.85
63096;BME280;49184;55.596;37.770;2022-09-14T08:13:50;98513.84;;;14.72;77.41
63096;BME280;49184;55.596;37.770;2022-09-14T08:16:16;98517.69;;;14.68;76.95
63096;BME280;49184;55.596;37.770;2022-09-14T08:21:15;98510.56;;;14.67;76.71
63096;BME280;49184;55.596;37.770;2022-09-14T08:23:42;98501.09;;;14.64;77.22
63096;BME280;49184;55.596;37.770;2022-09-14T08:26:15;98514.47;;;14.66;77.65
63096;BME280;49184;55.596;37.770;2022-09-14T08:28:41;98504.13;;;14.59;77.41
63096;BME280;49184;55.596;37.770;2022-09-14T08:31:15;98512.03;;;14.61;77.67
63096;BME280;49184;55.596;37.770;2022-09-14T08:33:45;98504.19;;;14.63;77.67
63096;BME280;49184;55.596;37.770;2022-09-14T08:36:15;98500.13;;;14.56;77.50
63096;BME280;49184;55.596;37.770;2022-09-14T08:38:42;98484.09;;;14.43;77.39
63096;BME280;49184;55.596;37.770;2022-09-14T08:44:19;98507.09;;;14.50;77.47
63096;BME280;49184;55.596;37.770;2022-09-14T08:58:15;98501.59;;;14.50;77.66
63096;BME280;49184;55.596;37.770;2022-09-14T09:04:10;98492.13;;;14.67;76.83
63096;BME280;49184;55.596;37.770;2022-09-14T09:09:51;98489.47;;;14.71;76.77
63096;BME280;49184;55.596;37.770;2022-09-14T09:12:28;98499.25;;;14.88;76.42
63096;BME280;49184;55.596;37.770;2022-09-14T09:15:00;98459.84;;;14.64;76.52
63096;BME280;49184;55.596;37.770;2022-09-14T09:17:38;98497.34;;;14.72;76.47
63096;BME280;49184;55.596;37.770;2022-09-14T09:20:17;98495.81;;;14.75;76.77
63096;BME280;49184;55.596;37.770;2022-09-14T09:25:30;98484.03;;;14.74;76.14
63096;BME280;49184;55.596;37.770;2022-09-14T09:28:09;98486.84;;;14.78;75.99
63096;BME280;49184;55.596;37.770;2022-09-14T09:30:49;98497.47;;;14.79;76.28
63096;BME280;49184;55.596;37.770;2022-09-14T09:33:20;98499.97;;;14.85;76.25
63096;BME280;49184;55.596;37.770;2022-09-14T09:36:23;98497.28;;;14.88;76.04
63096;BME280;49184;55.596;37.770;2022-09-14T09:38:53;98468.97;;;14.68;76.57
63096;BME280;49184;55.596;37.770;2022-09-14T09:41:28;98472.81;;;14.64;76.48
63096;BME280;49184;55.596;37.770;2022-09-14T09:50:06;98489.31;;;14.83;76.91
63096;BME280;49184;55.596;37.770;2022-09-14T09:52:58;98488.50;;;14.83;76.75
63096;BME280;49184;55.596;37.770;2022-09-14T09:55:29;98487.28;;;14.80;76.92
63096;BME280;49184;55.596;37.770;2022-09-14T10:03:29;98490.47;;;14.82;77.02
63096;BME280;49184;55.596;37.770;2022-09-14T10:06:04;98474.69;;;14.79;77.32
63096;BME280;49184;55.596;37.770;2022-09-14T10:08:31;98482.66;;;14.84;77.06
63096;BME280;49184;55.596;37.770;2022-09-14T10:11:01;98497.00;;;14.93;76.40
63096;BME280;49184;55.596;37.770;2022-09-14T10:13:34;98491.50;;;14.93;75.91
63096;BME280;49184;55.596;37.770;2022-09-14T10:16:16;98488.38;;;14.95;76.76
63096;BME280;49184;55.596;37.770;2022-09-14T10:18:50;98468.47;;;14.82;76.31
63096;BME280;49184;55.596;37.770;2022-09-14T10:21:24;98493.16;;;14.98;75.99
63096;BME280;49184;55.596;37.770;2022-09-14T10:24:16;98494.75;;;14.99;76.24
63096;BME280;49184;55.596;37.770;2022-09-14T10:26:44;98486.06;;;14.97;76.46
63096;BME280;49184;55.596;37.770;2022-09-14T10:32:14;98491.00;;;15.07;76.11
63096;BME280;49184;55.596;37.770;2022-09-14T10:34:42;98450.44;;;14.85;76.00
63096;BME280;49184;55.596;37.770;2022-09-14T10:37:27;98483.94;;;15.10;76.00
63096;BME280;49184;55.596;37.770;2022-09-14T10:43:12;98495.84;;;15.14;75.93
63096;BME280;49184;55.596;37.770;2022-09-14T10:45:49;98497.50;;;15.18;75.68
63096;BME280;49184;55.596;37.770;2022-09-14T10:59:27;98498.84;;;15.28;74.91
63096;BME280;49184;55.596;37.770;2022-09-14T11:02:31;98495.38;;;15.31;74.22
63096;BME280;49184;55.596;37.770;2022-09-14T11:05:10;98500.28;;;15.41;74.83
63096;BME280;49184;55.596;37.770;2022-09-14T11:08:10;98500.47;;;15.52;74.41
63096;BME280;49184;55.596;37.770;2022-09-14T11:17:06;98490.47;;;15.63;73.65
63096;BME280;49184;55.596;37.770;2022-09-14T11:22:35;98499.53;;;15.64;72.84
63096;BME280;49184;55.596;37.770;2022-09-14T11:25:15;98491.13;;;15.57;73.32
63096;BME280;49184;55.596;37.770;2022-09-14T11:27:47;98484.94;;;15.40;72.13
63096;BME280;49184;55.596;37.770;2022-09-14T11:30:21;98459.00;;;15.22;72.42
63096;BME280;49184;55.596;37.770;2022-09-14T12:47:49;98447.91;;;16.07;69.70
63096;BME280;49184;55.596;37.770;2022-09-14T12:50:19;98447.78;;;16.00;70.04
63096;BME280;49184;55.596;37.770;2022-09-14T12:53:14;98450.59;;;16.03;70.35
63096;BME280;49184;55.596;37.770;2022-09-14T12:55:55;98452.88;;;15.97;68.58
63096;BME280;49184;55.596;37.770;2022-09-14T13:01:22;98447.66;;;15.92;68.21
63096;BME280;49184;55.596;37.770;2022-09-14T13:03:54;98458.81;;;16.00;69.72
63096;BME280;49184;55.596;37.770;2022-09-14T13:06:22;98432.97;;;15.85;68.52
63096;BME280;49184;55.596;37.770;2022-09-14T13:08:53;98421.41;;;15.76;68.12
63096;BME280;49184;55.596;37.770;2022-09-14T13:11:25;98405.56;;;15.69;69.61
63096;BME280;49184;55.596;37.770;2022-09-14T13:13:54;98448.59;;;16.00;69.91
63096;BME280;49184;55.596;37.770;2022-09-14T13:16:41;98448.63;;;16.04;70.07
63096;BME280;49184;55.596;37.770;2022-09-14T13:19:22;98440.38;;;16.04;69.39
63096;BME280;49184;55.596;37.770;2022-09-14T13:21:51;98433.88;;;15.92;68.13
63096;BME280;49184;55.596;37.770;2022-09-14T13:26:59;98449.03;;;16.06;67.93
63096;BME280;49184;55.596;37.770;2022-09-14T13:29:26;98396.88;;;15.67;69.07
63096;BME280;49184;55.596;37.770;2022-09-14T13:31:55;98457.69;;;16.04;69.61
63096;BME280;49184;55.596;37.770;2022-09-14T13:34:27;98434.25;;;15.91;68.83
63096;BME280;49184;55.596;37.770;2022-09-14T13:36:55;98449.38;;;16.01;68.57
63096;BME280;49184;55.596;37.770;2022-09-14T13:39:25;98434.22;;;15.87;68.73
63096;BME280;49184;55.596;37.770;2022-09-14T13:41:54;98447.66;;;15.92;69.55
63096;BME280;49184;55.596;37.770;2022-09-14T13:44:25;98410.19;;;15.65;69.59
63096;BME280;49184;55.596;37.770;2022-09-14T13:46:53;98436.47;;;15.82;69.81
63096;BME280;49184;55.596;37.770;2022-09-14T13:49:24;98373.56;;;15.38;69.83
63096;BME280;49184;55.596;37.770;2022-09-14T13:51:52;98419.97;;;15.62;69.67
63096;BME280;49184;55.596;37.770;2022-09-14T13:54:38;98412.41;;;15.56;70.12
63096;BME280;49184;55.596;37.770;2022-09-14T13:57:12;98433.50;;;15.67;70.60
63096;BME280;49184;55.596;37.770;2022-09-14T14:02:53;98447.13;;;15.60;70.75
63096;BME280;49184;55.596;37.770;2022-09-14T14:05:32;98445.44;;;15.56;70.61
63096;BME280;49184;55.596;37.770;2022-09-14T14:10:53;98439.75;;;15.45;70.93
63096;BME280;49184;55.596;37.770;2022-09-14T14:13:25;98440.94;;;15.44;71.14
63096;BME280;49184;55.596;37.770;2022-09-14T14:15:51;98444.59;;;15.51;70.07
63096;BME280;49184;55.596;37.770;2022-09-14T14:18:37;98433.63;;;15.55;70.96
63096;BME280;49184;55.596;37.770;2022-09-14T14:21:13;98434.31;;;15.48;70.75
63096;BME280;49184;55.596;37.770;2022-09-14T14:23:41;98442.22;;;15.50;70.39
63096;BME280;49184;55.596;37.770;2022-09-14T14:26:19;98429.47;;;15.42;70.35
63096;BME280;49184;55.596;37.770;2022-09-14T14:28:48;98426.72;;;15.42;70.75
63096;BME280;49184;55.596;37.770;2022-09-14T14:31:20;98436.16;;;15.41;70.42
63096;BME280;49184;55.596;37.770;2022-09-14T14:33:50;98419.81;;;15.28;70.44
63096;BME280;49184;55.596;37.770;2022-09-14T14:36:18;98435.66;;;15.35;70.15
63096;BME280;49184;55.596;37.770;2022-09-14T14:38:45;98427.34;;;15.32;70.23
63096;BME280;49184;55.596;37.770;2022-09-14T14:41:14;98410.97;;;15.19;70.74
63096;BME280;49184;55.596;37.770;2022-09-14T14:43:42;98437.19;;;15.33;70.82
63096;BME280;49184;55.596;37.770;2022-09-14T14:46:12;98450.59;;;15.34;71.26
63096;BME280;49184;55.596;37.770;2022-09-14T14:48:40;98442.34;;;15.34;71.44
63096;BME280;49184;55.596;37.770;2022-09-14T14:51:10;98444.66;;;15.32;70.88
63096;BME280;49184;55.596;37.770;2022-09-14T14:53:39;98427.09;;;15.17;70.57
63096;BME280;49184;55.596;37.770;2022-09-14T14:56:08;98448.50;;;15.27;71.95
63096;BME280;49184;55.596;37.770;2022-09-14T14:58:41;98428.59;;;15.15;71.38
63096;BME280;49184;55.596;37.770;2022-09-14T15:01:07;98446.47;;;15.24;72.13
63096;BME280;49184;55.596;37.770;2022-09-14T15:03:34;98413.13;;;15.07;71.86
63096;BME280;49184;55.596;37.770;2022-09-14T15:06:10;98411.44;;;15.02;71.67
63096;BME280;49184;55.596;37.770;2022-09-14T15:08:36;98416.66;;;15.07;71.64
63096;BME280;49184;55.596;37.770;2022-09-14T15:11:02;98433.00;;;15.19;71.50
63096;BME280;49184;55.596;37.770;2022-09-14T15:13:28;98399.59;;;14.98;71.45
63096;BME280;49184;55.596;37.770;2022-09-14T15:15:55;98425.72;;;15.08;71.72
63096;BME280;49184;55.596;37.770;2022-09-14T15:18:21;98435.50;;;15.05;71.72
63096;BME280;49184;55.596;37.770;2022-09-14T15:20:48;98426.72;;;14.99;72.19
63096;BME280;49184;55.596;37.770;2022-09-14T15:23:15;98431.56;;;15.06;71.89
63096;BME280;49184;55.596;37.770;2022-09-14T15:25:41;98431.16;;;15.04;72.28
63096;BME280;49184;55.596;37.770;2022-09-14T15:28:07;98417.56;;;14.92;72.14
63096;BME280;49184;55.596;37.770;2022-09-14T15:30:35;98405.63;;;14.84;72.36
63096;BME280;49184;55.596;37.770;2022-09-14T15:33:01;98420.09;;;15.00;71.90
63096;BME280;49184;55.596;37.770;2022-09-14T15:35:28;98425.53;;;14.97;71.75
63096;BME280;49184;55.596;37.770;2022-09-14T15:37:55;98432.88;;;14.93;72.26
63096;BME280;49184;55.596;37.770;2022-09-14T15:40:21;98429.59;;;14.84;72.48
63096;BME280;49184;55.596;37.770;2022-09-14T15:42:47;98414.81;;;14.72;72.71
63096;BME280;49184;55.596;37.770;2022-09-14T15:45:15;98437.84;;;14.84;72.66
63096;BME280;49184;55.596;37.770;2022-09-14T15:47:41;98427.97;;;14.83;72.88
63096;BME280;49184;55.596;37.770;2022-09-14T15:50:08;98422.84;;;14.81;72.85
63096;BME280;49184;55.596;37.770;2022-09-14T15:52:36;98420.25;;;14.88;72.57
63096;BME280;49184;55.596;37.770;2022-09-14T15:55:04;98414.94;;;14.79;72.62
63096;BME280;49184;55.596;37.770;2022-09-14T15:57:30;98413.28;;;14.75;72.72
63096;BME280;49184;55.596;37.770;2022-09-14T15:59:57;98421.09;;;14.73;73.17
63096;BME280;49184;55.596;37.770;2022-09-14T16:02:23;98421.16;;;14.76;73.33
63096;BME280;49184;55.596;37.770;2022-09-14T16:04:50;98409.25;;;14.69;73.34
63096;BME280;49184;55.596;37.770;2022-09-14T16:07:16;98416.31;;;14.70;73.21
63096;BME280;49184;55.596;37.770;2022-09-14T16:09:43;98415.91;;;14.68;73.37
63096;BME280;49184;55.596;37.770;2022-09-14T16:12:10;98398.75;;;14.55;73.74
63096;BME280;49184;55.596;37.770;2022-09-14T16:14:37;98408.66;;;14.60;73.81
63096;BME280;49184;55.596;37.770;2022-09-14T16:17:05;98410.75;;;14.66;74.01
63096;BME280;49184;55.596;37.770;2022-09-14T16:19:33;98405.84;;;14.56;73.68
63096;BME280;49184;55.596;37.770;2022-09-14T16:21:59;98413.00;;;14.61;74.20
63096;BME280;49184;55.596;37.770;2022-09-14T16:24:27;98412.94;;;14.57;74.08
63096;BME280;49184;55.596;37.770;2022-09-14T16:26:54;98407.78;;;14.55;74.34
63096;BME280;49184;55.596;37.770;2022-09-14T16:29:23;98411.63;;;14.51;74.69
63096;BME280;49184;55.596;37.770;2022-09-14T16:31:49;98405.66;;;14.49;74.61
63096;BME280;49184;55.596;37.770;2022-09-14T16:36:45;98404.19;;;14.51;74.81
63096;BME280;49184;55.596;37.770;2022-09-14T16:39:17;98404.06;;;14.48;74.69
63096;BME280;49184;55.596;37.770;2022-09-14T16:41:44;98405.97;;;14.44;74.99